createdAt,value
2018-11-27T00:02:03.328Z,101719.62
2018-11-27T00:07:05.470Z,101719.84
2018-11-27T00:12:07.632Z,101724.11
2018-11-27T00:17:09.712Z,101726.36
2018-11-27T00:22:11.833Z,101732.22
2018-11-27T00:27:13.940Z,101740.05
2018-11-27T00:32:16.070Z,101739.38
2018-11-27T00:37:18.200Z,101746.19
2018-11-27T00:42:20.308Z,101748.17
2018-11-27T00:47:22.451Z,101759.50
2018-11-27T00:52:24.573Z,101763.50
2018-11-27T00:57:26.708Z,101758.86
2018-11-27T01:02:28.902Z,101759.48
2018-11-27T01:07:31.003Z,101766.60
2018-11-27T01:12:33.168Z,101762.46
2018-11-27T01:17:35.263Z,101769.59
2018-11-27T01:22:37.379Z,101772.45
2018-11-27T01:27:39.485Z,101766.98
2018-11-27T01:32:41.701Z,101776.13
2018-11-27T01:37:44.154Z,101765.37
2018-11-27T01:42:47.384Z,101769.33
2018-11-27T01:47:49.808Z,101770.49
2018-11-27T01:52:51.951Z,101770.75
2018-11-27T01:57:54.049Z,101779.39
2018-11-27T02:02:56.898Z,101781.63
2018-11-27T02:07:59.005Z,101776.52
2018-11-27T02:13:01.516Z,101771.63
2018-11-27T02:18:03.276Z,101779.48
2018-11-27T02:23:05.598Z,101765.13
2018-11-27T02:28:07.713Z,101774.02
2018-11-27T02:33:09.828Z,101762.64
2018-11-27T02:38:11.927Z,101763.39
2018-11-27T02:43:14.066Z,101770.25
2018-11-27T02:48:16.209Z,101763.03
2018-11-27T02:53:18.294Z,101768.50
2018-11-27T02:58:20.408Z,101776.13
2018-11-27T03:03:22.522Z,101769.38
2018-11-27T03:08:24.651Z,101777.23
2018-11-27T03:13:26.796Z,101782.86
2018-11-27T03:18:28.880Z,101779.99
2018-11-27T03:23:30.981Z,101775.73
2018-11-27T03:28:33.088Z,101777.48
2018-11-27T03:33:35.219Z,101782.11
2018-11-27T03:38:37.326Z,101790.58
2018-11-27T03:43:39.423Z,101800.45
2018-11-27T03:48:41.526Z,101799.34
2018-11-27T03:53:43.612Z,101796.75
2018-11-27T03:58:45.703Z,101803.45
2018-11-27T04:03:47.784Z,101804.58
2018-11-27T04:08:49.895Z,101814.83
2018-11-27T04:13:52.036Z,101806.11
2018-11-27T04:18:54.145Z,101812.06
2018-11-27T04:23:56.421Z,101810.82
2018-11-27T04:29:05.430Z,101813.47
2018-11-27T04:34:07.537Z,101817.72
2018-11-27T04:39:09.648Z,101816.32
2018-11-27T04:44:11.749Z,101825.33
2018-11-27T04:49:13.828Z,101825.46
2018-11-27T04:54:15.939Z,101833.95
2018-11-27T04:59:18.032Z,101824.33
2018-11-27T05:04:20.230Z,101835.43
2018-11-27T05:09:22.330Z,101844.19
2018-11-27T05:14:24.450Z,101841.56
2018-11-27T05:19:26.594Z,101858.92
2018-11-27T05:24:28.726Z,101852.30
2018-11-27T05:29:30.809Z,101866.54
2018-11-27T05:34:32.942Z,101871.28
2018-11-27T05:39:35.058Z,101868.41
2018-11-27T05:44:37.170Z,101867.03
2018-11-27T05:49:39.280Z,101871.59
2018-11-27T05:54:41.388Z,101877.48
2018-11-27T05:59:43.534Z,101870.74
2018-11-27T06:04:45.653Z,101873.27
2018-11-27T06:09:47.764Z,101880.26
2018-11-27T06:14:49.917Z,101883.39
2018-11-27T06:19:52.034Z,101886.89
2018-11-27T06:24:54.132Z,101889.38
2018-11-27T06:29:56.218Z,101891.13
2018-11-27T06:34:58.337Z,101891.39
2018-11-27T06:40:00.533Z,101899.52
2018-11-27T06:45:02.646Z,101893.72
2018-11-27T06:50:05.850Z,101902.73
2018-11-27T06:55:09.604Z,101911.45
2018-11-27T07:00:14.029Z,101922.55
2018-11-27T07:05:16.138Z,101928.52
2018-11-27T07:10:25.464Z,101932.67
2018-11-27T07:15:27.647Z,101949.50
2018-11-27T07:20:29.724Z,101943.80
2018-11-27T07:25:31.816Z,101953.80
2018-11-27T07:30:34.083Z,101954.84
2018-11-27T07:35:36.264Z,101952.09
2018-11-27T07:40:38.391Z,101959.98
2018-11-27T07:45:40.568Z,101966.74
2018-11-27T07:50:42.647Z,101971.05
2018-11-27T07:55:44.798Z,101971.61
2018-11-27T08:00:46.939Z,101990.41
2018-11-27T08:05:49.033Z,102002.81
2018-11-27T08:10:51.463Z,102001.48
2018-11-27T08:15:53.600Z,102003.49
2018-11-27T08:20:55.720Z,102004.91
2018-11-27T08:25:57.837Z,102005.16
2018-11-27T08:30:59.949Z,102004.01
2018-11-27T08:36:02.049Z,102006.80
2018-11-27T08:41:04.189Z,102011.43
2018-11-27T08:46:06.335Z,102009.98
2018-11-27T08:51:08.441Z,102019.89
2018-11-27T08:56:10.622Z,102025.64
2018-11-27T09:01:12.766Z,102032.77
2018-11-27T09:06:14.914Z,102048.17
2018-11-27T09:11:17.085Z,102043.14
2018-11-27T09:16:19.271Z,102048.02
2018-11-27T09:21:21.408Z,102053.50
2018-11-27T09:26:23.561Z,102070.94
2018-11-27T09:31:25.709Z,102075.18
2018-11-27T09:36:27.826Z,102084.19
2018-11-27T09:41:29.942Z,102076.48
2018-11-27T09:46:32.056Z,102092.31
2018-11-27T09:51:34.148Z,102094.31
2018-11-27T09:56:36.283Z,102086.33
2018-11-27T10:01:38.424Z,102082.62
2018-11-27T10:06:40.544Z,102083.18
2018-11-27T10:11:42.703Z,102087.97
2018-11-27T10:16:44.886Z,102091.27
2018-11-27T10:21:46.985Z,102082.94
2018-11-27T10:26:49.092Z,102085.17
2018-11-27T10:31:51.241Z,102085.44
2018-11-27T10:36:53.406Z,102077.72
2018-11-27T10:41:55.542Z,102068.16
2018-11-27T10:46:57.674Z,102068.91
2018-11-27T10:51:59.804Z,102076.70
2018-11-27T10:57:01.903Z,102075.70
2018-11-27T11:02:09.905Z,102068.19
2018-11-27T11:07:12.048Z,102071.94
2018-11-27T11:12:14.182Z,102067.06
2018-11-27T11:17:16.334Z,102061.81
2018-11-27T11:22:18.429Z,102069.80
2018-11-27T11:27:20.543Z,102071.41
2018-11-27T11:32:22.650Z,102079.55
2018-11-27T11:37:24.774Z,102082.80
2018-11-27T11:42:26.970Z,102084.31
2018-11-27T11:47:29.098Z,102086.90
2018-11-27T11:52:31.909Z,102081.00
2018-11-27T11:57:33.385Z,102086.38
2018-11-27T12:02:35.499Z,102083.36
2018-11-27T12:07:37.649Z,102087.19
2018-11-27T12:12:40.300Z,102087.05
2018-11-27T12:17:43.107Z,102077.10
2018-11-27T12:22:46.618Z,102078.46
2018-11-27T12:27:48.826Z,102075.62
2018-11-27T12:32:51.072Z,102080.89
2018-11-27T12:37:53.217Z,102082.62
2018-11-27T12:42:55.916Z,102085.35
2018-11-27T12:47:59.165Z,102084.25
2018-11-27T12:53:01.318Z,102082.73
2018-11-27T12:58:03.869Z,102078.13
2018-11-27T13:03:06.210Z,102082.52
2018-11-27T13:08:10.997Z,102081.92
2018-11-27T13:13:13.165Z,102082.52
2018-11-27T13:18:15.361Z,102087.48
2018-11-27T13:23:17.491Z,102099.70
2018-11-27T13:28:19.685Z,102093.84
2018-11-27T13:33:30.433Z,102102.20
2018-11-27T13:38:32.591Z,102111.10
2018-11-27T13:43:34.878Z,102112.66
2018-11-27T13:48:37.017Z,102107.04
2018-11-27T13:53:39.141Z,102103.63
2018-11-27T13:58:41.302Z,102101.81
2018-11-27T14:03:43.442Z,102112.92
2018-11-27T14:08:45.580Z,102117.09
2018-11-27T14:13:47.701Z,102124.33
2018-11-27T14:18:49.886Z,102120.61
2018-11-27T14:23:52.027Z,102126.39
2018-11-27T14:28:54.179Z,102127.20
2018-11-27T14:33:56.319Z,102129.45
2018-11-27T14:38:58.433Z,102127.45
2018-11-27T14:44:00.550Z,102128.80
2018-11-27T14:49:02.697Z,102131.78
2018-11-27T14:54:05.710Z,102138.87
2018-11-27T14:59:07.819Z,102138.58
2018-11-27T15:04:09.998Z,102129.28
2018-11-27T15:09:12.166Z,102130.05
2018-11-27T15:14:14.305Z,102125.17
2018-11-27T15:19:16.497Z,102134.87
2018-11-27T15:24:18.626Z,102140.90
2018-11-27T15:29:20.745Z,102141.76
2018-11-27T15:34:22.899Z,102144.30
2018-11-27T15:39:25.055Z,102142.72
2018-11-27T15:44:27.204Z,102150.56
2018-11-27T15:49:29.341Z,102156.39
2018-11-27T15:59:47.901Z,102162.05
2018-11-27T16:04:50.097Z,102166.86
2018-11-27T16:09:52.269Z,102173.58
2018-11-27T16:14:54.406Z,102171.04
2018-11-27T16:19:56.589Z,102169.14
2018-11-27T16:24:58.730Z,102170.20
2018-11-27T16:30:00.885Z,102170.09
2018-11-27T16:35:03.060Z,102175.90
2018-11-27T16:40:18.556Z,102180.53
2018-11-27T16:45:21.725Z,102183.48
2018-11-27T16:50:23.923Z,102188.04
2018-11-27T16:55:26.065Z,102193.03
2018-11-27T17:00:31.180Z,102202.52
2018-11-27T17:05:35.120Z,102200.91
2018-11-27T17:10:38.624Z,102200.05
2018-11-27T17:15:40.770Z,102197.83
2018-11-27T17:20:44.078Z,102186.59
2018-11-27T17:25:46.248Z,102197.06
2018-11-27T17:31:19.272Z,102207.19
2018-11-27T17:36:21.444Z,102213.68
2018-11-27T17:41:23.660Z,102219.81
2018-11-27T17:46:25.806Z,102232.31
2018-11-27T17:51:28.028Z,102234.36
2018-11-27T17:56:30.213Z,102227.31
2018-11-27T18:01:32.411Z,102226.79
2018-11-27T18:06:34.571Z,102231.95
2018-11-27T18:11:36.765Z,102238.97
2018-11-27T18:16:38.924Z,102245.89
2018-11-27T18:21:41.128Z,102238.34
2018-11-27T18:26:43.341Z,102231.55
2018-11-27T18:31:45.485Z,102234.13
2018-11-27T18:36:47.680Z,102241.47
2018-11-27T18:41:49.825Z,102241.80
2018-11-27T18:46:52.295Z,102241.22
2018-11-27T18:51:58.693Z,102252.56
2018-11-27T18:57:04.005Z,102249.82
2018-11-27T19:02:09.619Z,102243.53
2018-11-27T19:07:13.667Z,102243.16
2018-11-27T19:12:18.120Z,102262.61
2018-11-27T19:17:23.778Z,102273.81
2018-11-27T19:22:30.127Z,102271.02
2018-11-27T19:27:35.988Z,102282.13
2018-11-27T19:32:41.391Z,102280.69
2018-11-27T19:37:47.702Z,102278.72
2018-11-27T19:42:53.563Z,102281.31
2018-11-27T19:47:59.062Z,102290.55
2018-11-27T19:53:11.771Z,102304.80
2018-11-27T19:58:13.274Z,102312.52
2018-11-27T20:03:20.995Z,102308.13
2018-11-27T20:08:27.449Z,102313.83
2018-11-27T20:13:33.918Z,102319.06
2018-11-27T20:18:40.246Z,102320.68
2018-11-27T20:23:46.334Z,102331.52
2018-11-27T20:28:52.663Z,102322.33
2018-11-27T20:33:58.929Z,102321.33
2018-11-27T20:39:08.541Z,102319.78
2018-11-27T20:44:15.404Z,102328.05
2018-11-27T20:49:22.586Z,102333.18
2018-11-27T20:54:29.173Z,102329.34
2018-11-27T20:59:35.485Z,102330.44
2018-11-27T21:04:42.604Z,102337.45
2018-11-27T21:09:48.706Z,102321.00
2018-11-27T21:14:54.386Z,102321.86
2018-11-27T21:20:00.012Z,102320.27
2018-11-27T21:25:06.885Z,102312.95
2018-11-27T21:30:12.711Z,102311.39
2018-11-27T21:35:18.375Z,102309.91
2018-11-27T21:40:23.248Z,102321.16
2018-11-27T21:45:27.058Z,102323.57
2018-11-27T21:50:35.620Z,102318.11
2018-11-27T21:55:40.315Z,102336.83
2018-11-27T22:00:42.705Z,102334.97
2018-11-27T22:05:44.922Z,102322.45
2018-11-27T22:10:47.114Z,102318.57
2018-11-27T22:15:49.295Z,102317.87
2018-11-27T22:20:51.517Z,102323.64
2018-11-27T22:25:53.913Z,102336.70
2018-11-27T22:30:56.702Z,102344.30
2018-11-27T22:35:58.920Z,102349.48
2018-11-27T22:41:01.189Z,102348.89
2018-11-27T22:46:03.421Z,102351.38
2018-11-27T22:51:05.636Z,102355.06
2018-11-27T22:56:07.848Z,102355.61
2018-11-27T23:01:10.077Z,102346.22
2018-11-27T23:06:12.235Z,102345.73
2018-11-27T23:11:14.442Z,102343.88
2018-11-27T23:16:16.569Z,102332.95
2018-11-27T23:21:18.635Z,102332.42
2018-11-27T23:26:20.818Z,102326.84
2018-11-27T23:31:22.872Z,102334.30
2018-11-27T23:36:24.960Z,102337.08
2018-11-27T23:41:27.041Z,102340.56
2018-11-27T23:46:29.122Z,102337.09
2018-11-27T23:51:31.176Z,102343.41
2018-11-27T23:56:33.242Z,102344.12
